createdAt,value
2023-03-07T00:01:42.362Z,16.43
2023-03-07T00:04:09.024Z,17.00
2023-03-07T00:06:35.563Z,13.60
2023-03-07T00:09:03.641Z,14.13
2023-03-07T00:11:30.259Z,12.87
2023-03-07T00:13:58.107Z,14.70
2023-03-07T00:16:25.208Z,13.40
2023-03-07T00:18:51.841Z,12.67
2023-03-07T00:21:20.563Z,16.17
2023-03-07T00:23:47.974Z,13.57
2023-03-07T00:26:16.149Z,14.43
2023-03-07T00:28:42.967Z,18.60
2023-03-07T00:31:11.585Z,16.00
2023-03-07T00:33:39.164Z,14.33
2023-03-07T00:36:07.804Z,13.70
2023-03-07T00:38:35.297Z,19.03
2023-03-07T00:41:04.390Z,18.97
2023-03-07T00:43:31.461Z,14.70
2023-03-07T00:45:58.598Z,17.77
2023-03-07T00:48:27.307Z,15.47
2023-03-07T00:50:54.361Z,17.20
2023-03-07T00:53:21.726Z,15.23
2023-03-07T00:55:59.403Z,16.77
2023-03-07T00:58:26.620Z,16.20
2023-03-07T01:00:53.287Z,16.40
2023-03-07T01:03:20.742Z,17.73
2023-03-07T01:05:49.190Z,15.50
2023-03-07T01:08:15.747Z,15.87
2023-03-07T01:10:42.373Z,16.10
2023-03-07T01:13:09.853Z,15.63
2023-03-07T01:15:36.998Z,15.67
2023-03-07T01:18:03.950Z,16.60
2023-03-07T01:20:31.565Z,18.57
2023-03-07T01:22:59.532Z,13.47
2023-03-07T01:25:26.168Z,15.43
2023-03-07T01:27:52.716Z,15.90
2023-03-07T01:30:19.281Z,13.17
2023-03-07T01:32:45.829Z,13.07
2023-03-07T01:35:12.324Z,14.77
2023-03-07T01:37:38.852Z,14.60
2023-03-07T01:40:08.071Z,15.73
2023-03-07T01:42:34.612Z,15.47
2023-03-07T01:45:05.039Z,17.10
2023-03-07T01:47:31.656Z,15.50
2023-03-07T01:50:00.212Z,15.50
2023-03-07T01:52:31.343Z,13.13
2023-03-07T01:55:01.208Z,13.77
2023-03-07T01:57:32.713Z,13.43
2023-03-07T02:00:05.919Z,14.60
2023-03-07T02:02:34.839Z,15.20
2023-03-07T02:05:06.193Z,15.73
2023-03-07T02:07:37.321Z,13.67
2023-03-07T02:10:05.420Z,14.47
2023-03-07T02:12:34.004Z,15.83
2023-03-07T02:15:00.685Z,15.27
2023-03-07T02:17:27.254Z,13.63
2023-03-07T02:20:02.709Z,15.00
2023-03-07T02:22:29.437Z,14.00
2023-03-07T02:25:01.145Z,16.57
2023-03-07T02:27:33.176Z,16.07
2023-03-07T02:29:59.697Z,12.33
2023-03-07T02:32:26.346Z,16.83
2023-03-07T02:34:52.904Z,14.00
2023-03-07T02:37:24.681Z,16.33
2023-03-07T02:39:52.887Z,14.60
2023-03-07T02:42:22.543Z,14.73
2023-03-07T02:44:57.000Z,14.77
2023-03-07T02:47:23.636Z,14.27
2023-03-07T02:49:50.172Z,15.00
2023-03-07T02:52:16.751Z,16.30
2023-03-07T02:54:43.296Z,13.83
2023-03-07T02:57:09.801Z,14.57
2023-03-07T02:59:36.505Z,15.70
2023-03-07T03:02:04.469Z,14.70
2023-03-07T03:04:31.049Z,16.10
2023-03-07T03:06:57.559Z,13.63
2023-03-07T03:09:24.116Z,13.30
2023-03-07T03:11:50.697Z,15.40
2023-03-07T03:14:17.206Z,15.03
2023-03-07T03:16:43.727Z,13.33
2023-03-07T03:19:11.812Z,12.43
2023-03-07T03:21:38.318Z,13.97
2023-03-07T03:24:06.369Z,14.83
2023-03-07T03:26:33.552Z,14.77
2023-03-07T03:29:00.106Z,13.63
2023-03-07T03:31:26.709Z,13.80
2023-03-07T03:33:53.232Z,14.43
2023-03-07T03:36:21.220Z,13.27
2023-03-07T03:38:47.716Z,14.27
2023-03-07T03:41:15.450Z,12.17
2023-03-07T03:43:42.572Z,13.17
2023-03-07T03:46:09.174Z,17.23
2023-03-07T03:48:35.715Z,9.93
2023-03-07T03:51:04.080Z,12.47
2023-03-07T03:53:32.650Z,12.37
2023-03-07T03:56:04.532Z,12.37
2023-03-07T03:58:31.272Z,13.47
2023-03-07T04:00:58.004Z,13.03
2023-03-07T04:03:24.649Z,12.20
2023-03-07T04:05:51.199Z,9.23
2023-03-07T04:08:17.709Z,10.20
2023-03-07T04:10:45.546Z,10.77
2023-03-07T04:13:12.059Z,10.23
2023-03-07T04:15:38.616Z,10.17
2023-03-07T04:18:05.257Z,13.00
2023-03-07T04:20:31.787Z,13.13
2023-03-07T04:22:58.307Z,10.13
2023-03-07T04:25:24.845Z,11.07
2023-03-07T04:27:52.745Z,11.23
2023-03-07T04:30:19.237Z,11.63
2023-03-07T04:32:45.754Z,11.63
2023-03-07T04:35:12.311Z,12.03
2023-03-07T04:37:38.863Z,13.67
2023-03-07T04:40:06.460Z,9.93
2023-03-07T04:42:32.980Z,11.77
2023-03-07T04:45:01.972Z,11.00
2023-03-07T04:47:29.798Z,12.30
2023-03-07T04:49:56.309Z,11.70
2023-03-07T04:52:22.814Z,9.57
2023-03-07T04:54:49.357Z,10.90
2023-03-07T04:57:15.852Z,12.17
2023-03-07T04:59:42.368Z,10.43
2023-03-07T05:02:12.761Z,11.23
2023-03-07T05:04:39.306Z,8.90
2023-03-07T05:07:05.871Z,10.57
2023-03-07T05:09:32.374Z,8.47
2023-03-07T05:11:58.884Z,9.90
2023-03-07T05:14:25.433Z,10.23
2023-03-07T05:16:51.980Z,8.43
2023-03-07T05:19:19.856Z,10.40
2023-03-07T05:21:46.365Z,11.00
2023-03-07T05:24:13.002Z,9.27
2023-03-07T05:26:39.505Z,9.90
2023-03-07T05:29:05.991Z,7.57
2023-03-07T05:31:32.806Z,10.83
2023-03-07T05:34:00.433Z,9.17
2023-03-07T05:36:28.331Z,10.40
2023-03-07T05:38:54.808Z,11.27
2023-03-07T05:41:21.302Z,10.87
2023-03-07T05:43:47.770Z,12.50
2023-03-07T05:46:14.297Z,11.50
2023-03-07T05:48:40.812Z,11.07
2023-03-07T05:51:07.358Z,11.63
2023-03-07T05:53:35.181Z,10.60
2023-03-07T05:56:01.700Z,13.53
2023-03-07T05:58:28.206Z,10.13
2023-03-07T06:00:54.705Z,13.23
2023-03-07T06:03:21.256Z,10.83
2023-03-07T06:05:49.065Z,12.23
2023-03-07T06:08:15.653Z,10.53
2023-03-07T06:10:43.517Z,11.00
2023-03-07T06:13:15.286Z,11.73
2023-03-07T06:15:41.835Z,12.83
2023-03-07T06:18:08.355Z,9.73
2023-03-07T06:20:34.899Z,12.27
2023-03-07T06:23:01.453Z,10.57
2023-03-07T06:25:28.023Z,10.80
2023-03-07T06:27:55.870Z,11.60
2023-03-07T06:30:22.372Z,11.43
2023-03-07T06:32:48.854Z,13.20
2023-03-07T06:35:15.357Z,12.23
2023-03-07T06:37:41.916Z,10.97
2023-03-07T06:40:10.007Z,10.77
2023-03-07T06:42:36.669Z,9.63
2023-03-07T06:45:05.650Z,9.90
2023-03-07T06:47:32.190Z,10.63
2023-03-07T06:49:58.737Z,11.37
2023-03-07T06:52:25.251Z,9.80
2023-03-07T06:54:51.774Z,10.53
2023-03-07T06:57:18.290Z,10.50
2023-03-07T06:59:44.833Z,9.63
2023-03-07T07:02:14.068Z,11.67
2023-03-07T07:04:40.756Z,11.37
2023-03-07T07:07:07.286Z,10.47
2023-03-07T07:09:34.296Z,10.13
2023-03-07T07:12:00.842Z,12.57
2023-03-07T07:14:27.325Z,11.03
2023-03-07T07:16:53.849Z,11.90
2023-03-07T07:19:21.717Z,9.83
2023-03-07T07:21:48.238Z,10.03
2023-03-07T07:24:14.748Z,10.47
2023-03-07T07:26:41.260Z,9.67
2023-03-07T07:29:07.777Z,11.50
2023-03-07T07:31:34.342Z,13.67
2023-03-07T07:34:00.903Z,13.87
2023-03-07T07:36:28.830Z,11.00
2023-03-07T07:38:55.663Z,11.70
2023-03-07T07:41:22.167Z,12.87
2023-03-07T07:43:48.698Z,14.90
2023-03-07T07:46:15.270Z,11.63
2023-03-07T07:48:41.850Z,12.27
2023-03-07T07:51:09.251Z,11.90
2023-03-07T07:53:37.113Z,12.30
2023-03-07T07:56:03.973Z,11.27
2023-03-07T07:58:30.597Z,9.47
2023-03-07T08:00:57.889Z,10.53
2023-03-07T08:03:24.521Z,10.90
2023-03-07T08:05:51.085Z,12.73
2023-03-07T08:08:19.111Z,11.03
2023-03-07T08:10:48.003Z,11.77
2023-03-07T08:13:15.900Z,13.60
2023-03-07T08:15:42.599Z,11.83
2023-03-07T08:18:09.239Z,11.83
2023-03-07T08:20:36.884Z,9.97
2023-03-07T08:23:03.831Z,10.87
2023-03-07T08:25:30.395Z,10.57
2023-03-07T08:27:58.670Z,11.47
2023-03-07T08:30:27.397Z,9.77
2023-03-07T08:32:54.720Z,9.83
2023-03-07T08:35:22.566Z,10.90
2023-03-07T08:37:49.206Z,10.07
2023-03-07T08:40:16.451Z,12.53
2023-03-07T08:42:43.096Z,10.23
2023-03-07T08:45:11.986Z,9.97
2023-03-07T08:47:38.586Z,10.67
2023-03-07T08:50:06.081Z,11.07
2023-03-07T08:52:32.625Z,10.00
2023-03-07T08:54:59.123Z,12.83
2023-03-07T08:57:25.703Z,9.03
2023-03-07T08:59:52.246Z,12.97
2023-03-07T09:02:20.093Z,9.87
2023-03-07T09:04:47.368Z,8.30
2023-03-07T09:07:13.955Z,9.83
2023-03-07T09:09:40.516Z,8.70
2023-03-07T09:12:07.536Z,10.40
2023-03-07T09:14:34.056Z,10.63
2023-03-07T09:17:00.566Z,7.50
2023-03-07T09:19:28.417Z,10.53
2023-03-07T09:21:54.966Z,8.73
2023-03-07T09:24:21.462Z,9.13
2023-03-07T09:26:47.973Z,8.23
2023-03-07T09:29:14.454Z,8.10
2023-03-07T09:31:41.037Z,7.90
2023-03-07T09:34:07.556Z,10.70
2023-03-07T09:36:35.404Z,8.27
2023-03-07T09:39:01.935Z,9.33
2023-03-07T09:41:52.184Z,7.53
2023-03-07T09:44:25.812Z,7.83
2023-03-07T09:47:07.561Z,8.53
2023-03-07T09:49:40.513Z,7.80
2023-03-07T09:52:13.003Z,8.33
2023-03-07T09:54:44.096Z,8.43
2023-03-07T09:57:17.786Z,7.60
2023-03-07T09:59:47.824Z,9.60
2023-03-07T10:02:18.645Z,7.17
2023-03-07T10:04:51.281Z,10.93
2023-03-07T10:07:22.950Z,8.03
2023-03-07T10:09:53.592Z,8.90
2023-03-07T10:12:35.443Z,10.73
2023-03-07T10:15:13.361Z,14.40
2023-03-07T10:17:51.327Z,13.00
2023-03-07T10:20:23.200Z,12.60
2023-03-07T10:22:59.011Z,15.70
2023-03-07T10:25:28.462Z,14.00
2023-03-07T10:28:18.919Z,9.97
2023-03-07T10:30:48.481Z,14.07
2023-03-07T10:33:17.774Z,6.93
2023-03-07T10:35:50.903Z,7.97
2023-03-07T10:38:28.142Z,7.17
2023-03-07T10:40:58.493Z,13.77
2023-03-07T10:43:27.813Z,9.47
2023-03-07T10:45:59.881Z,9.00
2023-03-07T10:48:27.987Z,8.47
2023-03-07T10:51:02.343Z,7.23
2023-03-07T10:53:32.972Z,5.67
2023-03-07T10:56:13.209Z,7.17
2023-03-07T10:58:39.934Z,6.40
2023-03-07T11:01:17.437Z,5.57
2023-03-07T11:03:53.256Z,5.47
2023-03-07T11:06:30.795Z,5.57
2023-03-07T11:09:08.371Z,6.97
2023-03-07T11:11:36.628Z,7.00
2023-03-07T11:14:06.327Z,7.63
2023-03-07T11:16:33.161Z,8.30
2023-03-07T11:18:59.868Z,6.93
2023-03-07T11:21:31.218Z,5.93
2023-03-07T11:24:04.465Z,5.50
2023-03-07T11:26:33.583Z,5.50
2023-03-07T11:29:11.529Z,7.80
2023-03-07T11:31:51.107Z,5.77
2023-03-07T11:34:27.661Z,7.00
2023-03-07T11:36:56.103Z,6.93
2023-03-07T11:39:32.151Z,5.87
2023-03-07T11:42:04.305Z,4.87
2023-03-07T11:44:38.924Z,5.80
2023-03-07T11:47:22.922Z,5.50
2023-03-07T11:50:04.389Z,5.60
2023-03-07T11:52:51.898Z,6.93
2023-03-07T11:55:26.763Z,5.80
2023-03-07T11:58:06.010Z,5.83
2023-03-07T12:00:40.804Z,6.47
2023-03-07T12:03:42.433Z,5.57
2023-03-07T12:06:28.080Z,6.60
2023-03-07T12:09:07.714Z,8.07
2023-03-07T12:12:05.912Z,6.87
2023-03-07T12:14:42.048Z,5.00
2023-03-07T12:17:21.988Z,6.00
2023-03-07T12:20:23.326Z,5.80
2023-03-07T12:23:02.967Z,5.43
2023-03-07T12:25:34.931Z,6.07
2023-03-07T12:28:10.711Z,5.97
2023-03-07T12:30:49.691Z,5.37
2023-03-07T12:33:27.595Z,5.23
2023-03-07T12:35:58.094Z,4.90
2023-03-07T12:38:36.470Z,5.10
2023-03-07T12:41:09.590Z,4.90
2023-03-07T12:43:42.681Z,8.23
2023-03-07T12:46:16.334Z,8.87
2023-03-07T12:48:49.306Z,12.37
2023-03-07T12:51:20.876Z,6.70
2023-03-07T12:53:51.679Z,10.87
2023-03-07T12:56:20.941Z,8.63
2023-03-07T12:58:51.901Z,16.27
2023-03-07T13:01:23.476Z,11.67
2023-03-07T13:03:55.613Z,14.97
2023-03-07T13:06:25.060Z,16.20
2023-03-07T13:08:54.711Z,12.30
2023-03-07T13:11:23.183Z,10.70
2023-03-07T13:13:56.588Z,7.77
2023-03-07T13:16:47.482Z,7.63
2023-03-07T13:19:58.686Z,8.50
2023-03-07T13:22:58.863Z,7.20
2023-03-07T13:26:02.088Z,6.43
2023-03-07T13:28:49.606Z,9.43
2023-03-07T13:31:41.826Z,6.57
2023-03-07T13:34:42.634Z,6.37
2023-03-07T13:37:48.857Z,7.87
2023-03-07T13:40:51.131Z,4.93
2023-03-07T13:44:00.619Z,6.37
2023-03-07T13:46:50.187Z,6.93
2023-03-07T13:49:47.233Z,5.93
2023-03-07T13:52:28.582Z,6.20
2023-03-07T13:54:56.167Z,6.47
2023-03-07T13:57:34.852Z,5.40
2023-03-07T14:00:03.460Z,7.73
2023-03-07T14:02:30.531Z,7.23
2023-03-07T14:05:02.632Z,5.70
2023-03-07T14:07:33.591Z,6.13
2023-03-07T14:10:19.605Z,7.13
2023-03-07T14:13:11.032Z,8.43
2023-03-07T14:15:44.576Z,7.97
2023-03-07T14:18:24.206Z,7.20
2023-03-07T14:20:58.321Z,10.00
2023-03-07T14:23:47.992Z,9.57
2023-03-07T14:26:19.060Z,9.53
2023-03-07T14:28:51.642Z,7.17
2023-03-07T14:31:24.872Z,6.50
2023-03-07T14:33:52.276Z,7.67
2023-03-07T14:36:23.003Z,6.93
2023-03-07T14:38:51.178Z,6.90
2023-03-07T14:41:28.417Z,6.00
2023-03-07T14:44:09.093Z,7.63
2023-03-07T14:46:44.301Z,6.27
2023-03-07T14:49:23.125Z,10.50
2023-03-07T14:51:51.191Z,7.40
2023-03-07T14:54:21.593Z,7.90
2023-03-07T14:56:51.316Z,10.87
2023-03-07T14:59:28.036Z,11.27
2023-03-07T15:01:56.491Z,8.23
2023-03-07T15:04:25.399Z,8.73
2023-03-07T15:06:58.065Z,9.43
2023-03-07T15:09:25.489Z,11.50
2023-03-07T15:11:59.475Z,7.80
2023-03-07T15:14:36.461Z,8.83
2023-03-07T15:17:05.759Z,9.00
2023-03-07T15:19:38.067Z,15.13
2023-03-07T15:22:08.568Z,10.80
2023-03-07T15:24:37.403Z,10.23
2023-03-07T15:27:05.278Z,13.90
2023-03-07T15:29:32.791Z,8.57
2023-03-07T15:32:01.031Z,9.23
2023-03-07T15:34:29.794Z,8.57
2023-03-07T15:37:20.547Z,12.90
2023-03-07T15:39:55.989Z,7.63
2023-03-07T15:42:22.714Z,7.10
2023-03-07T15:44:53.799Z,6.90
2023-03-07T15:47:21.105Z,7.07
2023-03-07T15:49:50.873Z,8.27
2023-03-07T15:52:31.041Z,7.60
2023-03-07T15:54:58.951Z,8.10
2023-03-07T15:57:28.464Z,6.10
2023-03-07T15:59:58.541Z,6.60
2023-03-07T16:02:43.827Z,9.77
2023-03-07T16:05:37.394Z,5.60
2023-03-07T16:08:11.385Z,5.50
2023-03-07T16:10:39.821Z,4.60
2023-03-07T16:13:12.455Z,5.30
2023-03-07T16:15:39.054Z,5.23
2023-03-07T16:18:05.844Z,4.80
2023-03-07T16:20:32.501Z,5.10
2023-03-07T16:23:02.009Z,5.03
2023-03-07T16:25:30.825Z,5.90
2023-03-07T16:27:58.425Z,5.47
2023-03-07T16:30:27.559Z,5.37
2023-03-07T16:32:54.498Z,5.37
2023-03-07T16:35:22.511Z,4.63
2023-03-07T16:37:49.178Z,6.20
2023-03-07T16:40:16.521Z,7.10
2023-03-07T16:42:46.723Z,5.53
2023-03-07T16:45:19.688Z,7.30
2023-03-07T16:47:46.439Z,5.20
2023-03-07T16:50:14.784Z,9.70
2023-03-07T16:52:42.650Z,9.50
2023-03-07T16:55:12.540Z,7.70
2023-03-07T16:57:39.819Z,10.07
2023-03-07T17:00:12.588Z,8.50
2023-03-07T17:02:39.251Z,11.47
2023-03-07T17:05:10.218Z,13.60
2023-03-07T17:07:36.769Z,11.60
2023-03-07T17:10:03.612Z,8.53
2023-03-07T17:12:30.183Z,11.97
2023-03-07T17:14:56.771Z,10.90
2023-03-07T17:17:28.542Z,11.47
2023-03-07T17:19:55.113Z,11.13
2023-03-07T17:22:21.668Z,9.50
2023-03-07T17:24:48.269Z,8.73
2023-03-07T17:27:14.863Z,7.83
2023-03-07T17:29:44.389Z,8.03
2023-03-07T17:32:11.023Z,6.33
2023-03-07T17:34:39.693Z,8.20
2023-03-07T17:37:07.093Z,6.17
2023-03-07T17:39:34.470Z,9.53
2023-03-07T17:42:01.876Z,6.00
2023-03-07T17:44:28.631Z,7.73
2023-03-07T17:46:56.124Z,5.73
2023-03-07T17:49:23.475Z,5.67
2023-03-07T17:51:51.471Z,7.37
2023-03-07T17:54:18.081Z,8.07
2023-03-07T17:56:44.715Z,6.00
2023-03-07T17:59:11.675Z,8.60
2023-03-07T18:01:38.339Z,7.37
2023-03-07T18:04:07.096Z,7.27
2023-03-07T18:06:34.262Z,7.13
2023-03-07T18:09:02.478Z,6.13
2023-03-07T18:11:29.074Z,6.27
2023-03-07T18:13:55.697Z,6.57
2023-03-07T18:16:22.273Z,5.57
2023-03-07T18:18:58.699Z,6.60
2023-03-07T18:21:26.429Z,6.93
2023-03-07T18:23:53.833Z,7.23
2023-03-07T18:26:21.827Z,5.93
2023-03-07T18:28:50.905Z,5.30
2023-03-07T18:31:19.372Z,6.53
2023-03-07T18:33:48.629Z,7.03
2023-03-07T18:36:15.786Z,6.70
2023-03-07T18:38:43.219Z,8.60
2023-03-07T18:41:11.635Z,6.70
2023-03-07T18:43:40.085Z,6.27
2023-03-07T18:46:08.613Z,8.17
2023-03-07T18:48:35.203Z,11.07
2023-03-07T18:51:04.281Z,14.63
2023-03-07T18:53:31.583Z,12.77
2023-03-07T18:56:01.686Z,12.90
2023-03-07T18:58:28.297Z,12.53
2023-03-07T19:00:56.260Z,11.13
2023-03-07T19:03:23.040Z,11.20
2023-03-07T19:05:50.385Z,12.90
2023-03-07T19:08:17.376Z,8.97
2023-03-07T19:10:43.962Z,10.83
2023-03-07T19:13:10.518Z,16.20
2023-03-07T19:15:37.094Z,13.20
2023-03-07T19:18:05.093Z,15.23
2023-03-07T19:20:31.674Z,12.80
2023-03-07T19:22:58.207Z,10.17
2023-03-07T19:25:24.787Z,10.80
2023-03-07T19:27:51.338Z,11.13
2023-03-07T19:30:18.144Z,12.33
2023-03-07T19:32:44.780Z,8.77
2023-03-07T19:35:12.774Z,8.93
2023-03-07T19:37:39.375Z,8.20
2023-03-07T19:40:07.556Z,8.77
2023-03-07T19:42:34.094Z,7.90
2023-03-07T19:45:00.678Z,7.47
2023-03-07T19:47:27.209Z,7.60
2023-03-07T19:49:53.792Z,6.30
2023-03-07T19:52:21.778Z,7.60
2023-03-07T19:54:51.601Z,7.50
2023-03-07T19:57:18.213Z,8.77
2023-03-07T19:59:44.922Z,7.20
2023-03-07T20:02:13.098Z,6.10
2023-03-07T20:04:39.646Z,5.80
2023-03-07T20:07:06.213Z,6.57
2023-03-07T20:09:34.269Z,6.10
2023-03-07T20:12:00.865Z,5.73
2023-03-07T20:14:27.456Z,6.90
2023-03-07T20:16:54.185Z,7.27
2023-03-07T20:19:20.908Z,7.97
2023-03-07T20:21:47.471Z,6.80
2023-03-07T20:24:14.029Z,6.57
2023-03-07T20:26:41.997Z,6.10
2023-03-07T20:29:09.617Z,5.77
2023-03-07T20:31:37.121Z,6.80
2023-03-07T20:34:03.733Z,7.70
2023-03-07T20:36:31.582Z,7.87
2023-03-07T20:38:59.427Z,5.93
2023-03-07T20:41:27.669Z,8.97
2023-03-07T20:43:58.098Z,7.60
2023-03-07T20:46:24.821Z,6.83
2023-03-07T20:48:54.296Z,8.17
2023-03-07T20:51:23.098Z,6.70
2023-03-07T20:53:51.528Z,7.20
2023-03-07T20:56:18.980Z,6.80
2023-03-07T20:58:46.521Z,8.37
2023-03-07T21:01:15.695Z,7.63
2023-03-07T21:03:42.450Z,6.30
2023-03-07T21:06:09.286Z,5.83
2023-03-07T21:08:37.608Z,5.83
2023-03-07T21:11:05.940Z,6.63
2023-03-07T21:13:33.732Z,5.73
2023-03-07T21:16:02.619Z,6.67
2023-03-07T21:18:30.570Z,6.47
2023-03-07T21:20:59.010Z,6.60
2023-03-07T21:23:25.703Z,6.37
2023-03-07T21:25:52.292Z,6.07
2023-03-07T21:28:18.842Z,6.93
2023-03-07T21:30:45.382Z,5.20
2023-03-07T21:33:11.890Z,6.83
2023-03-07T21:35:39.958Z,7.30
2023-03-07T21:38:06.777Z,7.20
2023-03-07T21:40:33.387Z,6.80
2023-03-07T21:42:59.918Z,6.13
2023-03-07T21:45:26.634Z,7.87
2023-03-07T21:47:53.238Z,7.40
2023-03-07T21:50:20.070Z,8.03
2023-03-07T21:52:48.050Z,6.47
2023-03-07T21:55:14.779Z,7.00
2023-03-07T21:57:41.335Z,7.47
2023-03-07T22:00:09.018Z,7.00
2023-03-07T22:02:36.161Z,7.03
2023-03-07T22:05:02.732Z,5.40
2023-03-07T22:07:29.300Z,5.03
2023-03-07T22:09:57.233Z,3.50
2023-03-07T22:12:23.793Z,3.47
2023-03-07T22:14:50.359Z,3.10
2023-03-07T22:17:16.947Z,3.00
2023-03-07T22:19:43.489Z,2.90
2023-03-07T22:22:10.049Z,2.60
2023-03-07T22:24:36.615Z,2.83
2023-03-07T22:27:04.676Z,2.73
2023-03-07T22:29:31.364Z,2.50
2023-03-07T22:31:58.034Z,3.00
2023-03-07T22:34:24.749Z,2.90
2023-03-07T22:36:51.430Z,2.53
2023-03-07T22:39:17.985Z,2.47
2023-03-07T22:41:44.562Z,2.77
2023-03-07T22:44:12.475Z,3.07
2023-03-07T22:46:39.001Z,2.53
2023-03-07T22:49:05.567Z,2.70
2023-03-07T22:51:32.172Z,2.60
2023-03-07T22:53:58.709Z,2.80
2023-03-07T22:56:27.147Z,2.70
2023-03-07T22:58:54.298Z,3.13
2023-03-07T23:01:24.298Z,3.00
2023-03-07T23:03:52.793Z,2.80
2023-03-07T23:06:21.300Z,2.83
2023-03-07T23:08:49.531Z,2.80
2023-03-07T23:11:17.202Z,3.27
2023-03-07T23:13:43.875Z,2.80
2023-03-07T23:16:12.744Z,2.87
2023-03-07T23:18:41.483Z,3.17
2023-03-07T23:21:10.372Z,2.77
2023-03-07T23:23:37.035Z,2.97
2023-03-07T23:26:04.750Z,2.93
2023-03-07T23:28:31.706Z,2.90
2023-03-07T23:30:58.317Z,2.70
2023-03-07T23:33:25.347Z,3.20
2023-03-07T23:35:53.334Z,2.73
2023-03-07T23:38:19.881Z,2.77
2023-03-07T23:40:46.407Z,3.37
2023-03-07T23:43:13.702Z,2.80
2023-03-07T23:45:40.289Z,3.80
2023-03-07T23:48:07.167Z,2.40
2023-03-07T23:50:33.706Z,2.10
2023-03-07T23:53:01.614Z,1.93
2023-03-07T23:55:28.135Z,2.07
2023-03-07T23:57:54.672Z,1.63
